createdAt,value
2019-04-04T03:00:01.814Z,4.44
2019-04-04T03:06:01.852Z,4.45
2019-04-04T03:12:01.761Z,4.46
2019-04-04T03:18:05.205Z,4.38
2019-04-04T03:24:05.834Z,4.35
2019-04-04T03:30:01.916Z,4.38
2019-04-04T03:36:01.826Z,4.47
2019-04-04T03:42:01.798Z,4.44
2019-04-04T03:48:01.847Z,4.39
2019-04-04T03:54:01.817Z,4.37
2019-04-04T04:00:05.646Z,4.32
2019-04-04T04:06:01.833Z,4.34
2019-04-04T04:12:01.829Z,4.38
2019-04-04T04:18:01.817Z,4.35
2019-04-04T04:24:01.876Z,4.38
2019-04-04T04:30:06.230Z,4.28
2019-04-04T04:36:01.837Z,4.30
2019-04-04T04:42:02.017Z,4.26
2019-04-04T04:48:01.914Z,4.23
2019-04-04T04:54:01.849Z,4.21
2019-04-04T05:00:01.837Z,4.24
2019-04-04T05:06:02.654Z,4.31
2019-04-04T05:12:01.844Z,4.32
2019-04-04T05:18:01.836Z,4.31
2019-04-04T05:24:01.844Z,4.33
2019-04-04T05:30:02.027Z,4.37
2019-04-04T05:36:04.824Z,4.39
2019-04-04T05:42:01.847Z,4.43
2019-04-04T05:48:01.881Z,4.48
2019-04-04T05:54:01.878Z,4.58
2019-04-04T06:00:01.907Z,4.58
2019-04-04T06:06:02.025Z,4.61
2019-04-04T06:12:01.855Z,4.59
2019-04-04T06:18:01.886Z,4.58
2019-04-04T06:24:01.865Z,4.60
2019-04-04T06:30:01.942Z,4.65
2019-04-04T06:36:01.907Z,4.64
2019-04-04T06:42:03.177Z,4.63
2019-04-04T06:48:01.921Z,4.62
2019-04-04T06:54:01.876Z,4.61
2019-04-04T07:00:01.899Z,4.59
2019-04-04T07:06:01.917Z,4.58
2019-04-04T07:12:01.887Z,4.43
2019-04-04T07:18:01.872Z,4.24
2019-04-04T07:24:01.896Z,4.16
2019-04-04T07:30:01.881Z,4.19
2019-04-04T07:36:01.893Z,4.22
2019-04-04T07:42:01.899Z,4.03
2019-04-04T07:48:01.931Z,3.93
2019-04-04T07:54:01.911Z,3.91
2019-04-04T08:00:01.886Z,3.84
2019-04-04T08:06:01.886Z,3.80
2019-04-04T08:12:01.922Z,3.88
2019-04-04T08:18:01.907Z,3.78
2019-04-04T08:24:01.890Z,3.72
2019-04-04T08:30:01.900Z,3.69
2019-04-04T08:36:06.267Z,3.75
2019-04-04T08:42:01.892Z,3.75
2019-04-04T08:48:01.945Z,3.73
2019-04-04T08:54:01.909Z,3.78
2019-04-04T09:00:01.939Z,3.89
2019-04-04T09:06:01.911Z,3.96
2019-04-04T09:12:01.909Z,4.01
2019-04-04T09:18:02.155Z,3.97
2019-04-04T09:24:01.929Z,4.02
2019-04-04T09:30:01.988Z,4.19
2019-04-04T09:36:01.953Z,4.26
2019-04-04T09:42:02.004Z,4.20
2019-04-04T09:48:06.704Z,4.25
2019-04-04T09:54:02.002Z,4.28
2019-04-04T10:00:01.968Z,4.36
2019-04-04T10:06:01.955Z,4.47
2019-04-04T10:12:01.946Z,4.51
2019-04-04T10:18:02.505Z,4.42
2019-04-04T10:24:02.209Z,4.51
2019-04-04T10:30:02.881Z,4.68
2019-04-04T10:36:20.391Z,4.75
